sensor_id;sensor_type;location;lat;lon;timestamp;P1;durP1;ratioP1;P2;durP2;ratioP2
37297;SDS011;30517;51.932;4.278;2023-04-06T00:01:02;14.52;;;9.43;;
37297;SDS011;30517;51.932;4.278;2023-04-06T00:03:43;15.13;;;9.13;;
37297;SDS011;30517;51.932;4.278;2023-04-06T00:06:24;15.85;;;9.05;;
37297;SDS011;30517;51.932;4.278;2023-04-06T00:09:05;15.15;;;9.32;;
37297;SDS011;30517;51.932;4.278;2023-04-06T00:11:46;13.18;;;8.32;;
37297;SDS011;30517;51.932;4.278;2023-04-06T00:14:27;13.38;;;8.35;;
37297;SDS011;30517;51.932;4.278;2023-04-06T00:17:08;12.70;;;8.35;;
37297;SDS011;30517;51.932;4.278;2023-04-06T00:19:49;15.40;;;9.07;;
37297;SDS011;30517;51.932;4.278;2023-04-06T00:22:29;13.95;;;8.93;;
37297;SDS011;30517;51.932;4.278;2023-04-06T00:25:11;15.55;;;8.60;;
37297;SDS011;30517;51.932;4.278;2023-04-06T00:27:52;12.18;;;7.53;;
37297;SDS011;30517;51.932;4.278;2023-04-06T00:30:32;12.73;;;8.68;;
37297;SDS011;30517;51.932;4.278;2023-04-06T00:33:13;14.57;;;9.45;;
37297;SDS011;30517;51.932;4.278;2023-04-06T00:35:54;13.95;;;8.68;;
37297;SDS011;30517;51.932;4.278;2023-04-06T00:38:35;14.98;;;8.73;;
37297;SDS011;30517;51.932;4.278;2023-04-06T00:41:17;12.32;;;8.35;;
37297;SDS011;30517;51.932;4.278;2023-04-06T00:43:58;13.30;;;7.97;;
37297;SDS011;30517;51.932;4.278;2023-04-06T00:46:39;12.98;;;8.98;;
37297;SDS011;30517;51.932;4.278;2023-04-06T00:49:20;15.07;;;8.82;;
37297;SDS011;30517;51.932;4.278;2023-04-06T00:52:01;12.23;;;7.72;;
37297;SDS011;30517;51.932;4.278;2023-04-06T00:54:42;11.45;;;7.75;;
37297;SDS011;30517;51.932;4.278;2023-04-06T00:57:23;13.77;;;8.57;;
37297;SDS011;30517;51.932;4.278;2023-04-06T01:00:04;12.95;;;7.70;;
37297;SDS011;30517;51.932;4.278;2023-04-06T01:02:46;12.38;;;7.53;;
37297;SDS011;30517;51.932;4.278;2023-04-06T01:05:28;11.40;;;7.82;;
37297;SDS011;30517;51.932;4.278;2023-04-06T01:08:09;13.32;;;8.02;;
37297;SDS011;30517;51.932;4.278;2023-04-06T01:10:50;12.80;;;8.10;;
37297;SDS011;30517;51.932;4.278;2023-04-06T01:13:31;11.93;;;7.10;;
37297;SDS011;30517;51.932;4.278;2023-04-06T01:16:12;12.45;;;7.88;;
37297;SDS011;30517;51.932;4.278;2023-04-06T01:18:53;13.25;;;7.40;;
37297;SDS011;30517;51.932;4.278;2023-04-06T01:21:34;13.63;;;8.40;;
37297;SDS011;30517;51.932;4.278;2023-04-06T01:24:15;12.02;;;8.02;;
37297;SDS011;30517;51.932;4.278;2023-04-06T01:26:56;11.02;;;7.80;;
37297;SDS011;30517;51.932;4.278;2023-04-06T01:29:36;12.40;;;7.40;;
37297;SDS011;30517;51.932;4.278;2023-04-06T01:32:17;11.93;;;7.07;;
37297;SDS011;30517;51.932;4.278;2023-04-06T01:34:58;11.90;;;7.47;;
37297;SDS011;30517;51.932;4.278;2023-04-06T01:37:39;10.52;;;7.43;;
37297;SDS011;30517;51.932;4.278;2023-04-06T01:40:20;12.60;;;8.48;;
37297;SDS011;30517;51.932;4.278;2023-04-06T01:43:01;11.48;;;7.18;;
37297;SDS011;30517;51.932;4.278;2023-04-06T01:45:41;10.57;;;6.82;;
37297;SDS011;30517;51.932;4.278;2023-04-06T01:48:22;11.27;;;7.57;;
37297;SDS011;30517;51.932;4.278;2023-04-06T01:51:03;12.38;;;7.72;;
37297;SDS011;30517;51.932;4.278;2023-04-06T01:53:44;12.05;;;7.80;;
37297;SDS011;30517;51.932;4.278;2023-04-06T01:56:25;14.52;;;7.72;;
37297;SDS011;30517;51.932;4.278;2023-04-06T01:59:06;12.85;;;7.97;;
37297;SDS011;30517;51.932;4.278;2023-04-06T02:01:47;13.73;;;7.65;;
37297;SDS011;30517;51.932;4.278;2023-04-06T02:04:28;10.82;;;7.13;;
37297;SDS011;30517;51.932;4.278;2023-04-06T02:07:09;12.48;;;7.88;;
37297;SDS011;30517;51.932;4.278;2023-04-06T02:09:53;11.73;;;7.53;;
37297;SDS011;30517;51.932;4.278;2023-04-06T02:12:35;11.07;;;6.88;;
37297;SDS011;30517;51.932;4.278;2023-04-06T02:15:16;10.18;;;6.32;;
37297;SDS011;30517;51.932;4.278;2023-04-06T02:17:57;10.35;;;7.20;;
37297;SDS011;30517;51.932;4.278;2023-04-06T02:20:37;11.55;;;7.13;;
37297;SDS011;30517;51.932;4.278;2023-04-06T02:23:18;11.82;;;7.45;;
37297;SDS011;30517;51.932;4.278;2023-04-06T02:25:59;12.57;;;7.20;;
37297;SDS011;30517;51.932;4.278;2023-04-06T02:28:40;12.00;;;7.55;;
37297;SDS011;30517;51.932;4.278;2023-04-06T02:31:21;10.70;;;7.05;;
37297;SDS011;30517;51.932;4.278;2023-04-06T02:34:02;11.10;;;7.60;;
37297;SDS011;30517;51.932;4.278;2023-04-06T02:36:46;13.60;;;7.95;;
37297;SDS011;30517;51.932;4.278;2023-04-06T02:39:27;12.35;;;7.70;;
37297;SDS011;30517;51.932;4.278;2023-04-06T02:42:08;12.25;;;8.40;;
37297;SDS011;30517;51.932;4.278;2023-04-06T02:44:48;12.07;;;7.38;;
37297;SDS011;30517;51.932;4.278;2023-04-06T02:47:29;12.50;;;7.90;;
37297;SDS011;30517;51.932;4.278;2023-04-06T02:50:10;12.13;;;7.80;;
37297;SDS011;30517;51.932;4.278;2023-04-06T02:52:52;11.30;;;7.47;;
37297;SDS011;30517;51.932;4.278;2023-04-06T02:55:33;12.23;;;7.30;;
37297;SDS011;30517;51.932;4.278;2023-04-06T02:58:14;12.13;;;7.95;;
37297;SDS011;30517;51.932;4.278;2023-04-06T03:00:55;11.35;;;6.63;;
37297;SDS011;30517;51.932;4.278;2023-04-06T03:03:35;11.43;;;7.78;;
37297;SDS011;30517;51.932;4.278;2023-04-06T03:06:16;10.88;;;6.85;;
37297;SDS011;30517;51.932;4.278;2023-04-06T03:08:57;12.45;;;7.93;;
37297;SDS011;30517;51.932;4.278;2023-04-06T03:11:38;10.38;;;7.15;;
37297;SDS011;30517;51.932;4.278;2023-04-06T03:14:18;10.57;;;6.97;;
37297;SDS011;30517;51.932;4.278;2023-04-06T03:17:01;11.98;;;8.20;;
37297;SDS011;30517;51.932;4.278;2023-04-06T03:19:42;10.88;;;7.90;;
37297;SDS011;30517;51.932;4.278;2023-04-06T03:22:23;10.52;;;7.22;;
37297;SDS011;30517;51.932;4.278;2023-04-06T03:25:04;11.68;;;8.00;;
37297;SDS011;30517;51.932;4.278;2023-04-06T03:27:45;11.80;;;7.50;;
37297;SDS011;30517;51.932;4.278;2023-04-06T03:30:26;12.43;;;8.02;;
37297;SDS011;30517;51.932;4.278;2023-04-06T03:33:06;12.73;;;8.07;;
37297;SDS011;30517;51.932;4.278;2023-04-06T03:35:47;12.23;;;7.85;;
37297;SDS011;30517;51.932;4.278;2023-04-06T03:38:35;15.55;;;7.78;;
37297;SDS011;30517;51.932;4.278;2023-04-06T03:41:25;13.25;;;7.65;;
37297;SDS011;30517;51.932;4.278;2023-04-06T03:44:06;12.88;;;8.25;;
37297;SDS011;30517;51.932;4.278;2023-04-06T03:46:47;12.88;;;7.45;;
37297;SDS011;30517;51.932;4.278;2023-04-06T03:49:28;12.23;;;8.18;;
37297;SDS011;30517;51.932;4.278;2023-04-06T03:52:09;13.50;;;8.57;;
37297;SDS011;30517;51.932;4.278;2023-04-06T03:54:49;14.32;;;8.48;;
37297;SDS011;30517;51.932;4.278;2023-04-06T03:57:30;11.98;;;8.48;;
37297;SDS011;30517;51.932;4.278;2023-04-06T04:00:11;13.52;;;8.25;;
37297;SDS011;30517;51.932;4.278;2023-04-06T04:02:53;13.10;;;8.35;;
37297;SDS011;30517;51.932;4.278;2023-04-06T04:05:33;14.93;;;9.25;;
37297;SDS011;30517;51.932;4.278;2023-04-06T04:08:14;13.68;;;9.02;;
37297;SDS011;30517;51.932;4.278;2023-04-06T04:10:55;12.18;;;8.30;;
37297;SDS011;30517;51.932;4.278;2023-04-06T04:13:36;13.35;;;8.80;;
37297;SDS011;30517;51.932;4.278;2023-04-06T04:16:17;13.85;;;8.63;;
37297;SDS011;30517;51.932;4.278;2023-04-06T04:18:57;13.60;;;8.48;;
37297;SDS011;30517;51.932;4.278;2023-04-06T04:21:45;12.20;;;8.35;;
37297;SDS011;30517;51.932;4.278;2023-04-06T04:24:26;13.63;;;7.97;;
37297;SDS011;30517;51.932;4.278;2023-04-06T04:27:07;17.38;;;10.10;;
37297;SDS011;30517;51.932;4.278;2023-04-06T04:29:48;14.68;;;10.10;;
37297;SDS011;30517;51.932;4.278;2023-04-06T04:34:32;30.15;;;17.52;;
37297;SDS011;30517;51.932;4.278;2023-04-06T04:37:13;26.40;;;16.23;;
37297;SDS011;30517;51.932;4.278;2023-04-06T04:39:53;25.45;;;17.02;;
37297;SDS011;30517;51.932;4.278;2023-04-06T04:42:34;24.75;;;15.70;;
37297;SDS011;30517;51.932;4.278;2023-04-06T04:45:15;26.95;;;17.40;;
37297;SDS011;30517;51.932;4.278;2023-04-06T04:47:56;24.60;;;16.02;;
37297;SDS011;30517;51.932;4.278;2023-04-06T04:50:37;28.20;;;17.05;;
37297;SDS011;30517;51.932;4.278;2023-04-06T04:53:18;25.35;;;16.50;;
37297;SDS011;30517;51.932;4.278;2023-04-06T04:55:59;27.73;;;16.92;;
37297;SDS011;30517;51.932;4.278;2023-04-06T04:58:40;29.25;;;16.67;;
37297;SDS011;30517;51.932;4.278;2023-04-06T05:01:20;25.95;;;16.48;;
37297;SDS011;30517;51.932;4.278;2023-04-06T05:04:01;25.77;;;17.10;;
37297;SDS011;30517;51.932;4.278;2023-04-06T05:06:42;22.45;;;15.52;;
37297;SDS011;30517;51.932;4.278;2023-04-06T05:09:23;25.73;;;16.52;;
37297;SDS011;30517;51.932;4.278;2023-04-06T05:12:04;23.67;;;15.30;;
37297;SDS011;30517;51.932;4.278;2023-04-06T05:14:45;25.33;;;14.95;;
37297;SDS011;30517;51.932;4.278;2023-04-06T05:17:26;25.13;;;15.52;;
37297;SDS011;30517;51.932;4.278;2023-04-06T05:20:07;22.63;;;15.07;;
37297;SDS011;30517;51.932;4.278;2023-04-06T05:22:48;27.55;;;15.70;;
37297;SDS011;30517;51.932;4.278;2023-04-06T05:25:28;23.08;;;14.95;;
37297;SDS011;30517;51.932;4.278;2023-04-06T05:28:09;25.48;;;15.00;;
37297;SDS011;30517;51.932;4.278;2023-04-06T05:30:50;23.65;;;14.95;;
37297;SDS011;30517;51.932;4.278;2023-04-06T05:33:31;24.13;;;15.52;;
37297;SDS011;30517;51.932;4.278;2023-04-06T05:36:12;21.42;;;14.77;;
37297;SDS011;30517;51.932;4.278;2023-04-06T05:38:53;22.55;;;14.23;;
37297;SDS011;30517;51.932;4.278;2023-04-06T05:41:35;23.95;;;15.23;;
37297;SDS011;30517;51.932;4.278;2023-04-06T05:44:16;23.25;;;14.88;;
37297;SDS011;30517;51.932;4.278;2023-04-06T05:46:57;21.75;;;14.57;;
37297;SDS011;30517;51.932;4.278;2023-04-06T05:49:38;23.17;;;14.95;;
37297;SDS011;30517;51.932;4.278;2023-04-06T05:52:19;21.52;;;14.05;;
37297;SDS011;30517;51.932;4.278;2023-04-06T05:54:59;22.48;;;14.85;;
37297;SDS011;30517;51.932;4.278;2023-04-06T05:57:40;24.08;;;15.82;;
37297;SDS011;30517;51.932;4.278;2023-04-06T06:00:21;23.02;;;15.00;;
37297;SDS011;30517;51.932;4.278;2023-04-06T06:03:02;24.52;;;14.45;;
37297;SDS011;30517;51.932;4.278;2023-04-06T06:05:46;23.80;;;14.63;;
37297;SDS011;30517;51.932;4.278;2023-04-06T06:08:27;23.20;;;15.20;;
37297;SDS011;30517;51.932;4.278;2023-04-06T06:11:08;21.42;;;14.50;;
37297;SDS011;30517;51.932;4.278;2023-04-06T06:13:48;23.25;;;14.80;;
37297;SDS011;30517;51.932;4.278;2023-04-06T06:16:29;22.20;;;14.40;;
37297;SDS011;30517;51.932;4.278;2023-04-06T06:19:10;22.63;;;14.98;;
37297;SDS011;30517;51.932;4.278;2023-04-06T06:21:51;23.35;;;15.25;;
37297;SDS011;30517;51.932;4.278;2023-04-06T06:24:32;21.65;;;14.73;;
37297;SDS011;30517;51.932;4.278;2023-04-06T06:27:13;23.52;;;15.82;;
37297;SDS011;30517;51.932;4.278;2023-04-06T06:29:54;24.00;;;14.98;;
37297;SDS011;30517;51.932;4.278;2023-04-06T06:32:34;20.15;;;13.85;;
37297;SDS011;30517;51.932;4.278;2023-04-06T06:35:15;27.40;;;17.05;;
37297;SDS011;30517;51.932;4.278;2023-04-06T06:37:56;31.77;;;17.50;;
37297;SDS011;30517;51.932;4.278;2023-04-06T06:40:37;33.22;;;19.15;;
37297;SDS011;30517;51.932;4.278;2023-04-06T06:43:18;26.45;;;17.95;;
37297;SDS011;30517;51.932;4.278;2023-04-06T06:45:59;32.25;;;19.75;;
37297;SDS011;30517;51.932;4.278;2023-04-06T06:48:40;29.17;;;19.58;;
37297;SDS011;30517;51.932;4.278;2023-04-06T06:51:20;29.35;;;18.63;;
37297;SDS011;30517;51.932;4.278;2023-04-06T06:54:01;29.58;;;17.75;;
37297;SDS011;30517;51.932;4.278;2023-04-06T06:56:42;29.73;;;19.55;;
37297;SDS011;30517;51.932;4.278;2023-04-06T06:59:23;28.58;;;18.58;;
37297;SDS011;30517;51.932;4.278;2023-04-06T07:02:03;26.30;;;17.58;;
37297;SDS011;30517;51.932;4.278;2023-04-06T07:04:47;25.42;;;17.23;;
37297;SDS011;30517;51.932;4.278;2023-04-06T07:07:31;26.45;;;16.52;;
37297;SDS011;30517;51.932;4.278;2023-04-06T07:10:13;26.23;;;17.58;;
37297;SDS011;30517;51.932;4.278;2023-04-06T07:12:54;23.35;;;16.00;;
37297;SDS011;30517;51.932;4.278;2023-04-06T07:15:35;27.80;;;17.73;;
37297;SDS011;30517;51.932;4.278;2023-04-06T07:18:17;25.50;;;16.85;;
37297;SDS011;30517;51.932;4.278;2023-04-06T07:20:58;29.63;;;17.75;;
37297;SDS011;30517;51.932;4.278;2023-04-06T07:23:39;22.25;;;16.25;;
37297;SDS011;30517;51.932;4.278;2023-04-06T07:26:20;23.30;;;14.68;;
37297;SDS011;30517;51.932;4.278;2023-04-06T07:29:01;23.98;;;14.30;;
37297;SDS011;30517;51.932;4.278;2023-04-06T07:31:42;24.15;;;15.13;;
37297;SDS011;30517;51.932;4.278;2023-04-06T07:34:22;22.83;;;14.85;;
37297;SDS011;30517;51.932;4.278;2023-04-06T07:37:03;23.23;;;13.98;;
37297;SDS011;30517;51.932;4.278;2023-04-06T07:39:44;24.42;;;14.85;;
37297;SDS011;30517;51.932;4.278;2023-04-06T07:42:25;21.70;;;13.98;;
37297;SDS011;30517;51.932;4.278;2023-04-06T07:45:06;25.10;;;15.35;;
37297;SDS011;30517;51.932;4.278;2023-04-06T07:47:47;28.63;;;16.63;;
37297;SDS011;30517;51.932;4.278;2023-04-06T07:50:28;22.58;;;14.50;;
37297;SDS011;30517;51.932;4.278;2023-04-06T07:53:09;22.20;;;14.27;;
37297;SDS011;30517;51.932;4.278;2023-04-06T07:55:50;21.13;;;13.27;;
37297;SDS011;30517;51.932;4.278;2023-04-06T07:58:31;20.95;;;14.93;;
37297;SDS011;30517;51.932;4.278;2023-04-06T08:01:11;21.50;;;14.40;;
37297;SDS011;30517;51.932;4.278;2023-04-06T08:03:53;19.92;;;13.05;;
37297;SDS011;30517;51.932;4.278;2023-04-06T08:06:35;19.38;;;12.82;;
37297;SDS011;30517;51.932;4.278;2023-04-06T08:09:16;20.27;;;12.18;;
37297;SDS011;30517;51.932;4.278;2023-04-06T08:11:57;20.95;;;13.45;;
37297;SDS011;30517;51.932;4.278;2023-04-06T08:14:38;20.10;;;12.85;;
37297;SDS011;30517;51.932;4.278;2023-04-06T08:17:19;17.95;;;11.88;;
37297;SDS011;30517;51.932;4.278;2023-04-06T08:20:00;19.67;;;12.35;;
37297;SDS011;30517;51.932;4.278;2023-04-06T08:22:43;16.13;;;11.40;;
37297;SDS011;30517;51.932;4.278;2023-04-06T08:25:23;19.52;;;11.82;;
37297;SDS011;30517;51.932;4.278;2023-04-06T08:28:04;17.90;;;10.80;;
37297;SDS011;30517;51.932;4.278;2023-04-06T08:30:45;18.55;;;11.27;;
37297;SDS011;30517;51.932;4.278;2023-04-06T08:33:26;16.10;;;11.07;;
37297;SDS011;30517;51.932;4.278;2023-04-06T08:36:11;17.77;;;10.35;;
37297;SDS011;30517;51.932;4.278;2023-04-06T08:38:53;15.85;;;10.00;;
37297;SDS011;30517;51.932;4.278;2023-04-06T08:41:34;16.95;;;9.95;;
37297;SDS011;30517;51.932;4.278;2023-04-06T08:44:15;14.65;;;8.98;;
37297;SDS011;30517;51.932;4.278;2023-04-06T08:46:57;17.27;;;10.15;;
37297;SDS011;30517;51.932;4.278;2023-04-06T08:49:39;19.20;;;10.15;;
37297;SDS011;30517;51.932;4.278;2023-04-06T08:52:20;13.68;;;8.25;;
37297;SDS011;30517;51.932;4.278;2023-04-06T08:55:01;16.45;;;9.90;;
37297;SDS011;30517;51.932;4.278;2023-04-06T08:57:43;17.80;;;9.50;;
37297;SDS011;30517;51.932;4.278;2023-04-06T09:00:26;14.53;;;8.53;;
37297;SDS011;30517;51.932;4.278;2023-04-06T09:03:08;16.53;;;8.57;;
37297;SDS011;30517;51.932;4.278;2023-04-06T09:05:53;12.05;;;8.10;;
37297;SDS011;30517;51.932;4.278;2023-04-06T09:08:35;13.15;;;7.95;;
37297;SDS011;30517;51.932;4.278;2023-04-06T09:11:20;12.90;;;7.90;;
37297;SDS011;30517;51.932;4.278;2023-04-06T09:14:01;13.95;;;8.13;;
37297;SDS011;30517;51.932;4.278;2023-04-06T09:16:45;12.75;;;7.15;;
37297;SDS011;30517;51.932;4.278;2023-04-06T09:19:26;13.43;;;6.75;;
37297;SDS011;30517;51.932;4.278;2023-04-06T09:22:06;12.13;;;7.40;;
37297;SDS011;30517;51.932;4.278;2023-04-06T09:24:49;12.30;;;7.70;;
37297;SDS011;30517;51.932;4.278;2023-04-06T09:27:31;10.55;;;7.20;;
37297;SDS011;30517;51.932;4.278;2023-04-06T09:30:13;10.15;;;6.22;;
37297;SDS011;30517;51.932;4.278;2023-04-06T09:32:56;10.90;;;6.73;;
37297;SDS011;30517;51.932;4.278;2023-04-06T09:35:39;11.65;;;6.75;;
37297;SDS011;30517;51.932;4.278;2023-04-06T09:38:19;12.30;;;6.68;;
37297;SDS011;30517;51.932;4.278;2023-04-06T09:41:00;10.25;;;6.85;;
37297;SDS011;30517;51.932;4.278;2023-04-06T09:43:41;10.57;;;5.95;;
37297;SDS011;30517;51.932;4.278;2023-04-06T09:46:22;14.10;;;6.47;;
37297;SDS011;30517;51.932;4.278;2023-04-06T09:49:03;10.20;;;6.57;;
37297;SDS011;30517;51.932;4.278;2023-04-06T09:51:46;9.40;;;5.93;;
37297;SDS011;30517;51.932;4.278;2023-04-06T09:54:33;8.80;;;5.97;;
37297;SDS011;30517;51.932;4.278;2023-04-06T09:57:25;9.60;;;5.72;;
37297;SDS011;30517;51.932;4.278;2023-04-06T10:00:13;8.65;;;5.55;;
37297;SDS011;30517;51.932;4.278;2023-04-06T10:03:03;10.05;;;5.28;;
37297;SDS011;30517;51.932;4.278;2023-04-06T10:06:10;8.73;;;5.20;;
37297;SDS011;30517;51.932;4.278;2023-04-06T10:08:51;10.52;;;5.85;;
37297;SDS011;30517;51.932;4.278;2023-04-06T10:11:35;9.07;;;5.03;;
37297;SDS011;30517;51.932;4.278;2023-04-06T10:14:16;8.45;;;4.72;;
37297;SDS011;30517;51.932;4.278;2023-04-06T10:16:57;10.05;;;4.85;;
37297;SDS011;30517;51.932;4.278;2023-04-06T10:19:44;8.43;;;5.03;;
37297;SDS011;30517;51.932;4.278;2023-04-06T10:25:34;8.95;;;4.85;;
37297;SDS011;30517;51.932;4.278;2023-04-06T10:28:14;8.43;;;4.43;;
37297;SDS011;30517;51.932;4.278;2023-04-06T10:30:59;8.75;;;4.65;;
37297;SDS011;30517;51.932;4.278;2023-04-06T10:33:53;11.55;;;5.63;;
37297;SDS011;30517;51.932;4.278;2023-04-06T10:36:35;7.73;;;4.67;;
37297;SDS011;30517;51.932;4.278;2023-04-06T10:39:16;8.05;;;4.78;;
37297;SDS011;30517;51.932;4.278;2023-04-06T10:42:06;10.32;;;5.40;;
37297;SDS011;30517;51.932;4.278;2023-04-06T10:44:47;8.48;;;3.97;;
37297;SDS011;30517;51.932;4.278;2023-04-06T10:47:38;9.20;;;4.80;;
37297;SDS011;30517;51.932;4.278;2023-04-06T10:50:20;7.40;;;4.80;;
37297;SDS011;30517;51.932;4.278;2023-04-06T10:53:02;8.00;;;5.07;;
37297;SDS011;30517;51.932;4.278;2023-04-06T10:55:43;7.90;;;4.53;;
37297;SDS011;30517;51.932;4.278;2023-04-06T10:58:25;8.10;;;5.15;;
37297;SDS011;30517;51.932;4.278;2023-04-06T11:01:07;8.93;;;4.55;;
37297;SDS011;30517;51.932;4.278;2023-04-06T11:03:52;9.23;;;4.30;;
37297;SDS011;30517;51.932;4.278;2023-04-06T11:06:35;8.75;;;5.05;;
37297;SDS011;30517;51.932;4.278;2023-04-06T11:09:26;8.18;;;4.43;;
37297;SDS011;30517;51.932;4.278;2023-04-06T11:12:08;6.97;;;4.20;;
37297;SDS011;30517;51.932;4.278;2023-04-06T11:14:55;8.20;;;5.25;;
37297;SDS011;30517;51.932;4.278;2023-04-06T11:17:44;6.68;;;3.97;;
37297;SDS011;30517;51.932;4.278;2023-04-06T11:20:25;7.25;;;4.47;;
37297;SDS011;30517;51.932;4.278;2023-04-06T11:23:06;9.05;;;5.13;;
37297;SDS011;30517;51.932;4.278;2023-04-06T11:25:51;7.70;;;4.60;;
37297;SDS011;30517;51.932;4.278;2023-04-06T11:28:32;8.65;;;4.75;;
37297;SDS011;30517;51.932;4.278;2023-04-06T11:31:13;8.40;;;5.00;;
37297;SDS011;30517;51.932;4.278;2023-04-06T11:33:57;7.93;;;4.93;;
37297;SDS011;30517;51.932;4.278;2023-04-06T11:36:42;6.85;;;4.13;;
37297;SDS011;30517;51.932;4.278;2023-04-06T11:39:24;7.15;;;4.30;;
37297;SDS011;30517;51.932;4.278;2023-04-06T11:42:06;8.98;;;4.95;;
37297;SDS011;30517;51.932;4.278;2023-04-06T11:44:49;8.30;;;4.20;;
37297;SDS011;30517;51.932;4.278;2023-04-06T11:47:33;7.75;;;4.72;;
37297;SDS011;30517;51.932;4.278;2023-04-06T11:50:15;8.40;;;5.03;;
37297;SDS011;30517;51.932;4.278;2023-04-06T11:53:00;8.57;;;4.90;;
37297;SDS011;30517;51.932;4.278;2023-04-06T11:55:42;9.23;;;5.25;;
37297;SDS011;30517;51.932;4.278;2023-04-06T11:58:27;9.55;;;5.60;;
37297;SDS011;30517;51.932;4.278;2023-04-06T12:01:08;9.45;;;4.90;;
37297;SDS011;30517;51.932;4.278;2023-04-06T12:03:49;9.23;;;5.07;;
37297;SDS011;30517;51.932;4.278;2023-04-06T12:06:30;11.25;;;6.50;;
37297;SDS011;30517;51.932;4.278;2023-04-06T12:09:11;11.20;;;5.90;;
37297;SDS011;30517;51.932;4.278;2023-04-06T12:11:52;10.68;;;5.93;;
37297;SDS011;30517;51.932;4.278;2023-04-06T12:14:32;10.30;;;5.70;;
37297;SDS011;30517;51.932;4.278;2023-04-06T12:17:13;9.05;;;5.07;;
37297;SDS011;30517;51.932;4.278;2023-04-06T12:19:54;8.52;;;4.82;;
37297;SDS011;30517;51.932;4.278;2023-04-06T12:22:35;9.25;;;5.80;;
37297;SDS011;30517;51.932;4.278;2023-04-06T12:25:16;9.77;;;5.70;;
37297;SDS011;30517;51.932;4.278;2023-04-06T12:27:57;9.85;;;5.75;;
37297;SDS011;30517;51.932;4.278;2023-04-06T12:30:38;9.18;;;4.65;;
37297;SDS011;30517;51.932;4.278;2023-04-06T12:33:20;8.85;;;5.03;;
37297;SDS011;30517;51.932;4.278;2023-04-06T12:36:01;7.82;;;4.70;;
37297;SDS011;30517;51.932;4.278;2023-04-06T12:38:42;7.53;;;4.20;;
37297;SDS011;30517;51.932;4.278;2023-04-06T12:41:25;7.35;;;4.55;;
37297;SDS011;30517;51.932;4.278;2023-04-06T12:44:06;9.10;;;4.63;;
37297;SDS011;30517;51.932;4.278;2023-04-06T12:46:47;7.40;;;4.05;;
37297;SDS011;30517;51.932;4.278;2023-04-06T12:49:28;7.22;;;4.05;;
37297;SDS011;30517;51.932;4.278;2023-04-06T12:52:09;7.18;;;4.07;;
37297;SDS011;30517;51.932;4.278;2023-04-06T12:54:50;7.75;;;4.47;;
37297;SDS011;30517;51.932;4.278;2023-04-06T12:57:31;7.68;;;4.10;;
37297;SDS011;30517;51.932;4.278;2023-04-06T13:00:12;10.07;;;4.55;;
37297;SDS011;30517;51.932;4.278;2023-04-06T13:02:54;8.20;;;4.50;;
37297;SDS011;30517;51.932;4.278;2023-04-06T13:05:35;7.05;;;4.35;;
37297;SDS011;30517;51.932;4.278;2023-04-06T13:08:17;7.38;;;4.32;;
37297;SDS011;30517;51.932;4.278;2023-04-06T13:10:59;7.40;;;4.70;;
37297;SDS011;30517;51.932;4.278;2023-04-06T13:13:40;7.60;;;3.80;;
37297;SDS011;30517;51.932;4.278;2023-04-06T13:16:21;8.70;;;3.75;;
37297;SDS011;30517;51.932;4.278;2023-04-06T13:19:02;7.22;;;4.45;;
37297;SDS011;30517;51.932;4.278;2023-04-06T13:21:43;7.25;;;4.22;;
37297;SDS011;30517;51.932;4.278;2023-04-06T13:24:24;7.85;;;4.50;;
37297;SDS011;30517;51.932;4.278;2023-04-06T13:27:05;6.47;;;3.70;;
37297;SDS011;30517;51.932;4.278;2023-04-06T13:29:45;6.40;;;3.70;;
37297;SDS011;30517;51.932;4.278;2023-04-06T13:32:26;6.53;;;3.95;;
37297;SDS011;30517;51.932;4.278;2023-04-06T13:35:07;6.47;;;3.60;;
37297;SDS011;30517;51.932;4.278;2023-04-06T13:37:49;6.75;;;3.72;;
37297;SDS011;30517;51.932;4.278;2023-04-06T13:40:32;6.43;;;4.03;;
37297;SDS011;30517;51.932;4.278;2023-04-06T13:43:12;6.47;;;3.90;;
37297;SDS011;30517;51.932;4.278;2023-04-06T13:45:54;6.72;;;3.97;;
37297;SDS011;30517;51.932;4.278;2023-04-06T13:48:37;7.55;;;4.35;;
37297;SDS011;30517;51.932;4.278;2023-04-06T13:51:18;6.95;;;3.72;;
37297;SDS011;30517;51.932;4.278;2023-04-06T13:53:59;7.38;;;4.40;;
37297;SDS011;30517;51.932;4.278;2023-04-06T13:56:42;6.47;;;3.88;;
37297;SDS011;30517;51.932;4.278;2023-04-06T13:59:23;8.23;;;4.38;;
37297;SDS011;30517;51.932;4.278;2023-04-06T14:02:05;7.85;;;4.57;;
37297;SDS011;30517;51.932;4.278;2023-04-06T14:07:28;6.13;;;3.78;;
37297;SDS011;30517;51.932;4.278;2023-04-06T14:10:10;7.38;;;4.28;;
37297;SDS011;30517;51.932;4.278;2023-04-06T14:12:53;8.80;;;4.55;;
37297;SDS011;30517;51.932;4.278;2023-04-06T14:15:35;7.63;;;4.25;;
37297;SDS011;30517;51.932;4.278;2023-04-06T14:18:16;6.68;;;3.88;;
37297;SDS011;30517;51.932;4.278;2023-04-06T14:20:57;6.85;;;3.75;;
37297;SDS011;30517;51.932;4.278;2023-04-06T14:23:38;6.68;;;3.88;;
37297;SDS011;30517;51.932;4.278;2023-04-06T14:26:20;7.97;;;4.55;;
37297;SDS011;30517;51.932;4.278;2023-04-06T14:29:01;6.75;;;3.90;;
37297;SDS011;30517;51.932;4.278;2023-04-06T14:31:46;6.95;;;3.70;;
37297;SDS011;30517;51.932;4.278;2023-04-06T14:34:28;8.77;;;4.25;;
37297;SDS011;30517;51.932;4.278;2023-04-06T14:37:09;9.02;;;4.18;;
37297;SDS011;30517;51.932;4.278;2023-04-06T14:39:50;6.30;;;3.97;;
37297;SDS011;30517;51.932;4.278;2023-04-06T14:42:31;7.13;;;4.07;;
37297;SDS011;30517;51.932;4.278;2023-04-06T14:45:13;7.85;;;4.50;;
37297;SDS011;30517;51.932;4.278;2023-04-06T14:47:54;8.23;;;4.57;;
37297;SDS011;30517;51.932;4.278;2023-04-06T14:50:35;6.80;;;3.90;;
37297;SDS011;30517;51.932;4.278;2023-04-06T14:53:16;6.63;;;3.83;;
37297;SDS011;30517;51.932;4.278;2023-04-06T14:55:57;7.97;;;4.28;;
37297;SDS011;30517;51.932;4.278;2023-04-06T14:58:38;8.60;;;4.53;;
37297;SDS011;30517;51.932;4.278;2023-04-06T15:01:19;7.72;;;4.35;;
37297;SDS011;30517;51.932;4.278;2023-04-06T15:04:03;7.97;;;4.45;;
37297;SDS011;30517;51.932;4.278;2023-04-06T15:06:45;8.15;;;4.43;;
37297;SDS011;30517;51.932;4.278;2023-04-06T15:09:28;6.55;;;3.95;;
37297;SDS011;30517;51.932;4.278;2023-04-06T15:12:10;6.82;;;4.15;;
37297;SDS011;30517;51.932;4.278;2023-04-06T15:14:51;7.00;;;4.25;;
37297;SDS011;30517;51.932;4.278;2023-04-06T15:17:31;6.82;;;3.83;;
37297;SDS011;30517;51.932;4.278;2023-04-06T15:20:12;8.25;;;4.05;;
37297;SDS011;30517;51.932;4.278;2023-04-06T15:22:53;8.48;;;4.28;;
37297;SDS011;30517;51.932;4.278;2023-04-06T15:25:34;8.73;;;5.05;;
37297;SDS011;30517;51.932;4.278;2023-04-06T15:28:15;6.85;;;3.90;;
37297;SDS011;30517;51.932;4.278;2023-04-06T15:30:58;10.93;;;5.03;;
37297;SDS011;30517;51.932;4.278;2023-04-06T15:33:39;7.63;;;4.55;;
37297;SDS011;30517;51.932;4.278;2023-04-06T15:36:23;8.18;;;4.75;;
37297;SDS011;30517;51.932;4.278;2023-04-06T15:39:09;7.18;;;4.43;;
37297;SDS011;30517;51.932;4.278;2023-04-06T15:41:50;7.18;;;4.45;;
37297;SDS011;30517;51.932;4.278;2023-04-06T15:44:31;7.75;;;5.00;;
37297;SDS011;30517;51.932;4.278;2023-04-06T15:47:12;7.90;;;4.38;;
37297;SDS011;30517;51.932;4.278;2023-04-06T15:49:53;7.75;;;4.57;;
37297;SDS011;30517;51.932;4.278;2023-04-06T15:52:33;7.40;;;4.70;;
37297;SDS011;30517;51.932;4.278;2023-04-06T15:55:15;10.35;;;4.63;;
37297;SDS011;30517;51.932;4.278;2023-04-06T15:57:56;7.80;;;5.18;;
37297;SDS011;30517;51.932;4.278;2023-04-06T16:00:37;7.85;;;4.72;;
37297;SDS011;30517;51.932;4.278;2023-04-06T16:03:18;7.93;;;5.22;;
37297;SDS011;30517;51.932;4.278;2023-04-06T16:05:59;8.55;;;4.93;;
37297;SDS011;30517;51.932;4.278;2023-04-06T16:08:40;8.27;;;5.25;;